createdAt,value
2018-04-23T00:00:34.632Z,98167.88
2018-04-23T00:03:02.139Z,98163.60
2018-04-23T00:05:29.662Z,98170.91
2018-04-23T00:07:57.169Z,98164.41
2018-04-23T00:10:24.697Z,98170.70
2018-04-23T00:12:52.185Z,98170.46
2018-04-23T00:15:19.653Z,98165.88
2018-04-23T00:17:47.134Z,98165.33
2018-04-23T00:20:14.628Z,98156.91
2018-04-23T00:22:42.115Z,98163.14
2018-04-23T00:25:09.667Z,98161.31
2018-04-23T00:27:37.154Z,98154.75
2018-04-23T00:30:04.651Z,98156.36
2018-04-23T00:32:32.143Z,98156.48
2018-04-23T00:34:59.634Z,98152.95
2018-04-23T00:37:27.132Z,98157.09
2018-04-23T00:39:54.616Z,98152.68
2018-04-23T00:42:22.118Z,98147.09
2018-04-23T00:44:49.630Z,98145.50
2018-04-23T00:47:17.118Z,98154.44
2018-04-23T00:49:44.676Z,98159.40
2018-04-23T00:52:12.167Z,98156.06
2018-04-23T00:54:39.658Z,98158.85
2018-04-23T00:57:07.167Z,98162.75
2018-04-23T00:59:34.661Z,98163.23
2018-04-23T01:02:02.148Z,98159.58
2018-04-23T01:04:29.622Z,98155.38
2018-04-23T01:06:57.110Z,98155.27
2018-04-23T01:09:24.608Z,98157.72
2018-04-23T01:11:52.100Z,98160.34
2018-04-23T01:14:19.598Z,98161.39
2018-04-23T01:16:47.078Z,98154.81
2018-04-23T01:19:14.586Z,98163.37
2018-04-23T01:21:42.102Z,98159.67
2018-04-23T01:24:09.610Z,98161.88
2018-04-23T01:26:37.139Z,98162.33
2018-04-23T01:29:04.636Z,98164.13
2018-04-23T01:31:32.122Z,98161.19
2018-04-23T01:33:59.615Z,98164.57
2018-04-23T01:36:27.145Z,98167.25
2018-04-23T01:38:54.635Z,98161.79
2018-04-23T01:41:22.114Z,98165.34
2018-04-23T01:43:49.580Z,98172.75
2018-04-23T01:46:17.062Z,98171.14
2018-04-23T01:48:44.530Z,98174.43
2018-04-23T01:51:12.007Z,98177.86
2018-04-23T01:53:39.470Z,98177.30
2018-04-23T01:56:07.018Z,98179.77
2018-04-23T01:58:34.510Z,98184.71
2018-04-23T02:01:02.009Z,98181.72
2018-04-23T02:03:29.526Z,98185.48
2018-04-23T02:05:57.076Z,98184.41
2018-04-23T02:08:24.584Z,98182.83
2018-04-23T02:10:52.092Z,98190.73
2018-04-23T02:13:19.562Z,98182.80
2018-04-23T02:15:47.059Z,98182.40
2018-04-23T02:18:14.551Z,98189.17
2018-04-23T02:20:42.081Z,98185.67
2018-04-23T02:23:09.561Z,98191.09
2018-04-23T02:25:37.046Z,98184.39
2018-04-23T02:28:04.535Z,98190.38
2018-04-23T02:30:32.021Z,98180.50
2018-04-23T02:32:59.513Z,98177.11
2018-04-23T02:35:26.994Z,98178.95
2018-04-23T02:37:54.494Z,98180.97
2018-04-23T02:40:22.004Z,98179.00
2018-04-23T02:42:49.483Z,98182.59
2018-04-23T02:45:16.964Z,98179.43
2018-04-23T02:47:44.601Z,98179.27
2018-04-23T02:50:12.086Z,98180.60
2018-04-23T02:52:39.575Z,98179.37
2018-04-23T02:55:07.039Z,98175.84
2018-04-23T02:57:34.540Z,98176.12
2018-04-23T03:00:02.048Z,98171.87
2018-04-23T03:02:29.535Z,98180.05
2018-04-23T03:04:57.043Z,98177.39
2018-04-23T03:07:24.540Z,98175.48
2018-04-23T03:09:52.092Z,98179.53
2018-04-23T03:12:19.574Z,98172.92
2018-04-23T03:14:47.069Z,98171.28
2018-04-23T03:17:14.602Z,98168.48
2018-04-23T03:19:42.095Z,98168.26
2018-04-23T03:22:09.596Z,98167.38
2018-04-23T03:24:37.134Z,98169.47
2018-04-23T03:27:04.612Z,98163.31
2018-04-23T03:29:32.104Z,98158.70
2018-04-23T03:31:59.589Z,98161.07
2018-04-23T03:34:27.062Z,98163.23
2018-04-23T03:36:54.671Z,98165.88
2018-04-23T03:39:22.132Z,98158.27
2018-04-23T03:41:49.622Z,98165.25
2018-04-23T03:44:17.112Z,98160.01
2018-04-23T03:46:44.611Z,98163.87
2018-04-23T03:49:12.106Z,98170.45
2018-04-23T03:51:39.599Z,98165.50
2018-04-23T03:54:07.076Z,98165.89
2018-04-23T03:56:34.561Z,98170.16
2018-04-23T03:59:02.060Z,98167.19
2018-04-23T04:01:29.572Z,98173.00
2018-04-23T04:03:57.065Z,98170.40
2018-04-23T04:06:24.532Z,98168.71
2018-04-23T04:08:52.019Z,98170.20
2018-04-23T04:11:19.496Z,98167.81
2018-04-23T04:13:58.802Z,98174.64
2018-04-23T04:19:32.921Z,98170.04
2018-04-23T04:22:00.401Z,98171.84
2018-04-23T04:24:27.933Z,98168.38
2018-04-23T04:26:55.422Z,98164.70
2018-04-23T04:29:22.918Z,98170.38
2018-04-23T04:31:50.410Z,98165.86
2018-04-23T04:34:17.881Z,98174.81
2018-04-23T04:36:45.390Z,98177.10
2018-04-23T04:39:12.911Z,98178.97
2018-04-23T04:41:40.405Z,98180.52
2018-04-23T04:44:07.897Z,98177.59
2018-04-23T04:46:35.384Z,98178.59
2018-04-23T04:49:02.938Z,98178.59
2018-04-23T04:51:30.665Z,98180.05
2018-04-23T04:53:58.160Z,98178.55
2018-04-23T04:56:25.712Z,98178.53
2018-04-23T04:58:53.208Z,98174.92
2018-04-23T05:01:20.703Z,98185.44
2018-04-23T05:03:48.226Z,98184.55
2018-04-23T05:06:15.832Z,98182.05
2018-04-23T05:08:43.735Z,98182.41
2018-04-23T05:11:11.220Z,98181.42
2018-04-23T05:13:39.768Z,98182.95
2018-04-23T05:16:07.264Z,98184.88
2018-04-23T05:18:48.642Z,98183.79
2018-04-23T05:21:16.195Z,98190.25
2018-04-23T05:23:43.746Z,98188.88
2018-04-23T05:26:11.223Z,98186.58
2018-04-23T05:28:38.735Z,98185.48
2018-04-23T05:31:06.235Z,98184.81
2018-04-23T05:33:33.760Z,98188.88
2018-04-23T05:36:01.247Z,98192.34
2018-04-23T05:38:28.734Z,98196.63
2018-04-23T05:40:56.363Z,98197.98
2018-04-23T05:43:23.854Z,98200.00
2018-04-23T05:45:51.346Z,98192.89
2018-04-23T05:48:18.862Z,98193.97
2018-04-23T05:50:46.353Z,98192.31
2018-04-23T05:53:13.833Z,98197.68
2018-04-23T05:55:41.329Z,98195.44
2018-04-23T05:58:08.823Z,98204.72
2018-04-23T06:00:36.317Z,98198.91
2018-04-23T06:03:03.822Z,98198.75
2018-04-23T06:05:31.336Z,98196.05
2018-04-23T06:07:58.792Z,98197.95
2018-04-23T06:10:26.327Z,98202.80
2018-04-23T06:12:53.823Z,98205.70
2018-04-23T06:15:21.307Z,98195.53
2018-04-23T06:17:48.813Z,98197.28
2018-04-23T06:20:16.309Z,98197.33
2018-04-23T06:22:43.823Z,98197.12
2018-04-23T06:25:11.320Z,98198.38
2018-04-23T06:27:38.827Z,98199.75
2018-04-23T06:30:06.300Z,98203.59
2018-04-23T06:32:33.865Z,98204.82
2018-04-23T06:35:01.333Z,98202.59
2018-04-23T06:37:28.938Z,98200.40
2018-04-23T06:39:56.477Z,98200.98
2018-04-23T06:42:23.971Z,98200.92
2018-04-23T06:44:51.464Z,98204.88
2018-04-23T06:47:18.932Z,98202.98
2018-04-23T06:49:46.423Z,98206.63
2018-04-23T06:52:13.949Z,98205.47
2018-04-23T06:54:41.435Z,98206.11
2018-04-23T06:57:08.915Z,98211.28
2018-04-23T06:59:36.415Z,98205.00
2018-04-23T07:02:03.899Z,98204.56
2018-04-23T07:04:31.378Z,98208.98
2018-04-23T07:06:58.889Z,98218.45
2018-04-23T07:09:26.491Z,98226.48
2018-04-23T07:11:54.031Z,98234.13
2018-04-23T07:14:21.519Z,98231.17
2018-04-23T07:16:49.064Z,98238.74
2018-04-23T07:19:16.609Z,98243.28
2018-04-23T07:21:44.088Z,98243.27
2018-04-23T07:24:11.589Z,98252.22
2018-04-23T07:26:39.088Z,98257.45
2018-04-23T07:29:06.571Z,98264.02
2018-04-23T07:31:34.091Z,98270.46
2018-04-23T07:34:01.580Z,98280.19
2018-04-23T07:36:29.045Z,98285.02
2018-04-23T07:38:56.545Z,98290.31
2018-04-23T07:41:24.028Z,98306.73
2018-04-23T07:43:51.524Z,98318.50
2018-04-23T07:46:19.031Z,98322.33
2018-04-23T07:48:46.524Z,98320.31
2018-04-23T07:51:14.012Z,98328.21
2018-04-23T07:53:41.526Z,98337.30
2018-04-23T07:56:09.040Z,98339.28
2018-04-23T07:58:36.616Z,98345.75
2018-04-23T08:01:04.189Z,98340.11
2018-04-23T08:03:31.730Z,98363.70
2018-04-23T08:05:59.232Z,98360.10
2018-04-23T08:08:26.749Z,98353.08
2018-04-23T08:10:54.232Z,98361.80
2018-04-23T08:13:21.715Z,98365.62
2018-04-23T08:15:49.209Z,98377.29
2018-04-23T08:18:16.681Z,98379.19
2018-04-23T08:20:44.170Z,98382.41
2018-04-23T08:23:11.767Z,98388.11
2018-04-23T08:25:39.259Z,98391.31
2018-04-23T08:28:06.743Z,98396.82
2018-04-23T08:30:34.234Z,98409.98
2018-04-23T08:33:01.714Z,98410.59
2018-04-23T08:35:29.380Z,98419.52
2018-04-23T08:37:56.899Z,98427.82
2018-04-23T08:40:24.400Z,98434.09
2018-04-23T08:42:51.929Z,98437.39
2018-04-23T08:45:19.413Z,98431.46
2018-04-23T08:47:46.941Z,98434.56
2018-04-23T08:50:14.466Z,98425.25
2018-04-23T08:52:42.048Z,98428.02
2018-04-23T08:55:09.543Z,98415.21
2018-04-23T08:57:37.044Z,98429.95
2018-04-23T09:00:04.621Z,98416.36
2018-04-23T09:02:32.114Z,98411.20
2018-04-23T09:04:59.612Z,98414.73
2018-04-23T09:07:27.186Z,98411.77
2018-04-23T09:09:54.674Z,98400.64
2018-04-23T09:12:22.161Z,98397.28
2018-04-23T09:14:49.711Z,98403.48
2018-04-23T09:17:17.232Z,98396.39
2018-04-23T09:19:44.711Z,98391.66
2018-04-23T09:22:12.234Z,98411.23
2018-04-23T09:24:39.732Z,98413.03
2018-04-23T09:27:07.225Z,98415.27
2018-04-23T09:29:34.750Z,98415.30
2018-04-23T09:32:02.246Z,98419.06
2018-04-23T09:34:29.739Z,98415.85
2018-04-23T09:36:57.343Z,98415.37
2018-04-23T09:39:24.967Z,98414.91
2018-04-23T09:41:52.466Z,98419.02
2018-04-23T09:44:19.973Z,98421.01
2018-04-23T09:46:47.438Z,98421.75
2018-04-23T09:49:14.947Z,98424.85
2018-04-23T09:51:42.526Z,98426.58
2018-04-23T09:54:10.010Z,98424.03
2018-04-23T09:56:37.514Z,98416.37
2018-04-23T09:59:05.029Z,98411.47
2018-04-23T10:01:32.745Z,98407.31
2018-04-23T10:04:06.071Z,98407.13
2018-04-23T10:09:07.330Z,98414.41
2018-04-23T10:11:34.844Z,98421.38
2018-04-23T10:14:02.331Z,98422.53
2018-04-23T10:16:29.872Z,98430.73
2018-04-23T10:18:57.366Z,98426.07
2018-04-23T10:21:24.864Z,98428.63
2018-04-23T10:23:52.358Z,98425.84
2018-04-23T10:26:19.834Z,98437.13
2018-04-23T10:28:47.344Z,98435.36
2018-04-23T10:31:14.839Z,98441.35
2018-04-23T10:33:42.320Z,98440.25
2018-04-23T10:36:09.803Z,98446.65
2018-04-23T10:38:39.372Z,98438.22
2018-04-23T10:41:06.874Z,98444.73
2018-04-23T10:43:35.290Z,98432.80
2018-04-23T10:46:02.753Z,98437.79
2018-04-23T10:48:30.292Z,98443.08
2018-04-23T10:50:58.114Z,98442.34
2018-04-23T10:53:25.674Z,98439.39
2018-04-23T10:55:53.145Z,98433.03
2018-04-23T10:58:20.634Z,98430.35
2018-04-23T11:00:48.127Z,98423.06
2018-04-23T11:03:15.661Z,98419.80
2018-04-23T11:05:43.181Z,98421.05
2018-04-23T11:08:10.679Z,98422.10
2018-04-23T11:10:38.185Z,98422.88
2018-04-23T11:13:05.772Z,98418.84
2018-04-23T11:15:33.236Z,98417.92
2018-04-23T11:18:00.723Z,98414.52
2018-04-23T11:20:28.203Z,98412.70
2018-04-23T11:22:55.683Z,98412.69
2018-04-23T11:25:23.157Z,98407.61
2018-04-23T11:27:50.645Z,98416.13
2018-04-23T11:30:18.159Z,98409.05
2018-04-23T11:32:45.632Z,98409.38
2018-04-23T11:35:13.119Z,98410.34
2018-04-23T11:37:40.619Z,98401.52
2018-04-23T11:40:08.452Z,98402.61
2018-04-23T11:42:35.949Z,98411.11
2018-04-23T11:45:03.486Z,98404.46
2018-04-23T11:47:30.931Z,98407.92
2018-04-23T11:49:58.407Z,98407.19
2018-04-23T11:52:25.895Z,98409.04
2018-04-23T11:54:53.384Z,98406.78
2018-04-23T11:57:20.870Z,98406.19
2018-04-23T11:59:48.368Z,98405.09
2018-04-23T12:02:15.877Z,98414.63
2018-04-23T12:04:43.364Z,98414.83
2018-04-23T12:07:10.884Z,98415.17
2018-04-23T12:09:38.386Z,98410.02
2018-04-23T12:12:05.867Z,98412.42
2018-04-23T12:14:33.428Z,98414.13
2018-04-23T12:17:00.918Z,98413.58
2018-04-23T12:19:28.399Z,98418.92
2018-04-23T12:21:55.900Z,98426.01
2018-04-23T12:24:23.486Z,98431.70
2018-04-23T12:26:51.146Z,98432.94
2018-04-23T12:29:18.618Z,98431.17
2018-04-23T12:31:46.110Z,98428.38
2018-04-23T12:34:13.586Z,98425.11
2018-04-23T12:36:41.124Z,98433.98
2018-04-23T12:39:08.612Z,98424.78
2018-04-23T12:41:36.111Z,98427.14
2018-04-23T12:44:03.600Z,98420.73
2018-04-23T12:46:31.101Z,98422.23
2018-04-23T12:48:58.609Z,98414.17
2018-04-23T12:51:26.089Z,98413.80
2018-04-23T12:53:53.681Z,98422.13
2018-04-23T12:56:21.232Z,98416.51
2018-04-23T12:58:48.728Z,98421.41
2018-04-23T13:01:16.305Z,98416.50
2018-04-23T13:03:43.864Z,98419.45
2018-04-23T13:06:11.442Z,98414.81
2018-04-23T13:08:38.937Z,98410.81
2018-04-23T13:11:06.523Z,98407.98
2018-04-23T13:13:34.007Z,98397.10
2018-04-23T13:16:01.508Z,98404.27
2018-04-23T13:18:29.076Z,98396.06
2018-04-23T13:20:56.535Z,98393.09
2018-04-23T13:23:24.047Z,98384.86
2018-04-23T13:25:51.626Z,98390.41
2018-04-23T13:28:19.189Z,98394.52
2018-04-23T13:30:46.699Z,98401.55
2018-04-23T13:33:14.215Z,98392.02
2018-04-23T13:35:41.672Z,98388.55
2018-04-23T13:38:13.907Z,98389.64
2018-04-23T13:40:41.412Z,98377.33
2018-04-23T13:43:08.942Z,98370.00
2018-04-23T13:45:36.566Z,98362.42
2018-04-23T13:48:04.080Z,98351.81
2018-04-23T13:50:31.570Z,98342.83
2018-04-23T13:52:59.122Z,98339.48
2018-04-23T13:55:26.637Z,98337.19
2018-04-23T13:57:54.145Z,98335.49
2018-04-23T14:00:21.686Z,98331.23
2018-04-23T14:02:49.224Z,98328.66
2018-04-23T14:05:16.741Z,98333.61
2018-04-23T14:07:52.669Z,98321.61
2018-04-23T14:10:20.191Z,98314.44
2018-04-23T14:12:48.857Z,98315.78
2018-04-23T14:15:21.065Z,98313.34
2018-04-23T14:18:18.148Z,98314.59
2018-04-23T14:20:54.729Z,98307.90
2018-04-23T14:23:23.229Z,98325.45
2018-04-23T14:25:50.726Z,98319.80
2018-04-23T14:28:18.257Z,98316.65
2018-04-23T14:30:45.760Z,98313.47
2018-04-23T14:33:13.326Z,98317.56
2018-04-23T14:35:40.869Z,98314.14
2018-04-23T14:38:08.385Z,98312.58
2018-04-23T14:40:35.865Z,98308.82
2018-04-23T14:43:03.409Z,98312.39
2018-04-23T14:45:30.972Z,98308.03
2018-04-23T14:47:58.445Z,98303.69
2018-04-23T14:50:25.945Z,98305.47
2018-04-23T14:52:53.435Z,98300.06
2018-04-23T14:55:20.928Z,98302.95
2018-04-23T14:57:48.435Z,98297.33
2018-04-23T15:00:16.060Z,98295.53
2018-04-23T15:02:43.743Z,98297.55
2018-04-23T15:05:11.238Z,98296.70
2018-04-23T15:07:38.735Z,98299.50
2018-04-23T15:10:06.307Z,98296.42
2018-04-23T15:21:12.354Z,98301.55
2018-04-23T15:23:39.923Z,98307.34
2018-04-23T15:26:07.423Z,98313.70
2018-04-23T15:28:34.975Z,98315.83
2018-04-23T15:31:02.537Z,98313.98
2018-04-23T15:33:30.042Z,98319.66
2018-04-23T15:35:57.634Z,98315.81
2018-04-23T15:38:25.160Z,98319.36
2018-04-23T15:40:52.691Z,98327.58
2018-04-23T15:43:20.169Z,98322.23
2018-04-23T15:45:47.653Z,98323.78
2018-04-23T15:48:15.200Z,98332.80
2018-04-23T15:50:42.727Z,98331.52
2018-04-23T15:53:10.224Z,98341.27
2018-04-23T15:55:37.878Z,98337.16
2018-04-23T15:58:05.346Z,98345.86
2018-04-23T16:00:32.835Z,98350.52
2018-04-23T16:03:00.407Z,98352.06
2018-04-23T16:05:27.913Z,98349.52
2018-04-23T16:07:55.426Z,98341.14
2018-04-23T16:10:22.934Z,98341.91
2018-04-23T16:12:50.429Z,98342.16
2018-04-23T16:15:17.919Z,98347.84
2018-04-23T16:17:45.401Z,98351.38
2018-04-23T16:20:12.915Z,98352.81
2018-04-23T16:22:40.414Z,98347.48
2018-04-23T16:25:07.943Z,98345.95
2018-04-23T16:27:35.436Z,98348.11
2018-04-23T16:30:02.950Z,98343.20
2018-04-23T16:32:31.543Z,98346.79
2018-04-23T16:34:59.111Z,98341.54
2018-04-23T16:37:27.598Z,98336.44
2018-04-23T16:39:55.093Z,98335.50
2018-04-23T16:42:22.590Z,98335.56
2018-04-23T16:44:50.545Z,98336.05
2018-04-23T16:47:17.577Z,98336.41
2018-04-23T16:49:45.162Z,98335.60
2018-04-23T16:52:12.709Z,98333.55
2018-04-23T16:54:40.286Z,98337.33
2018-04-23T16:57:14.038Z,98338.53
2018-04-23T16:59:44.226Z,98336.00
2018-04-23T17:02:11.796Z,98345.94
2018-04-23T17:04:39.283Z,98347.16
2018-04-23T17:07:06.749Z,98346.37
2018-04-23T17:09:34.246Z,98350.13
2018-04-23T17:12:04.801Z,98357.52
2018-04-23T17:14:36.059Z,98358.66
2018-04-23T17:17:08.453Z,98369.34
2018-04-23T17:19:36.051Z,98376.06
2018-04-23T17:22:13.353Z,98379.64
2018-04-23T17:24:55.543Z,98379.11
2018-04-23T17:27:33.277Z,98377.13
2018-04-23T17:30:10.145Z,98380.91
2018-04-23T17:32:51.862Z,98383.49
2018-04-23T17:38:16.542Z,98389.15
2018-04-23T17:40:47.889Z,98389.78
2018-04-23T17:43:18.819Z,98387.97
2018-04-23T17:45:59.631Z,98388.41
2018-04-23T17:48:30.270Z,98390.31
2018-04-23T17:50:59.730Z,98386.00
2018-04-23T17:53:27.411Z,98401.05
2018-04-23T17:55:55.231Z,98400.63
2018-04-23T17:58:24.063Z,98404.83
2018-04-23T18:00:51.586Z,98402.71
2018-04-23T18:03:19.090Z,98406.98
2018-04-23T18:05:46.684Z,98409.05
2018-04-23T18:08:14.502Z,98410.47
2018-04-23T18:10:42.014Z,98408.99
2018-04-23T18:13:09.568Z,98413.58
2018-04-23T18:15:37.122Z,98420.55
2018-04-23T18:18:04.746Z,98420.98
2018-04-23T18:20:32.476Z,98421.58
2018-04-23T18:22:59.962Z,98424.25
2018-04-23T18:25:27.486Z,98424.78
2018-04-23T18:27:55.010Z,98422.74
2018-04-23T18:30:22.522Z,98424.92
2018-04-23T18:32:50.059Z,98430.81
2018-04-23T18:35:17.716Z,98431.27
2018-04-23T18:37:45.277Z,98430.94
2018-04-23T18:40:13.014Z,98431.77
2018-04-23T18:42:40.511Z,98430.64
2018-04-23T18:45:08.059Z,98431.44
2018-04-23T18:47:36.499Z,98427.83
2018-04-23T18:50:04.464Z,98432.06
2018-04-23T18:52:32.166Z,98429.17
2018-04-23T18:54:59.699Z,98427.84
2018-04-23T18:57:27.181Z,98426.03
2018-04-23T18:59:54.775Z,98429.03
2018-04-23T19:02:22.274Z,98432.56
2018-04-23T19:04:49.774Z,98434.23
2018-04-23T19:07:17.313Z,98439.41
2018-04-23T19:09:45.485Z,98438.08
2018-04-23T19:12:13.161Z,98440.97
2018-04-23T19:14:40.760Z,98440.59
2018-04-23T19:17:08.437Z,98443.75
2018-04-23T19:19:35.940Z,98452.50
2018-04-23T19:22:03.491Z,98452.00
2018-04-23T19:24:31.114Z,98457.34
2018-04-23T19:26:58.779Z,98455.71
2018-04-23T19:29:26.388Z,98456.25
2018-04-23T19:31:53.928Z,98464.86
2018-04-23T19:34:21.423Z,98457.84
2018-04-23T19:36:49.116Z,98462.20
2018-04-23T19:39:16.611Z,98459.55
2018-04-23T19:41:44.196Z,98463.41
2018-04-23T19:44:11.793Z,98470.64
2018-04-23T19:46:39.310Z,98472.15
2018-04-23T19:49:07.094Z,98471.73
2018-04-23T19:51:34.628Z,98474.03
2018-04-23T19:54:02.112Z,98471.63
2018-04-23T19:56:29.657Z,98475.09
2018-04-23T19:58:57.157Z,98479.48
2018-04-23T20:01:24.786Z,98489.43
2018-04-23T20:03:52.441Z,98484.02
2018-04-23T20:06:20.024Z,98495.11
2018-04-23T20:08:47.648Z,98492.36
2018-04-23T20:11:15.164Z,98495.06
2018-04-23T20:13:42.808Z,98491.56
2018-04-23T20:16:10.849Z,98489.05
2018-04-23T20:18:38.323Z,98496.90
2018-04-23T20:21:05.866Z,98505.38
2018-04-23T20:23:33.415Z,98504.24
2018-04-23T20:26:00.907Z,98511.14
2018-04-23T20:28:28.499Z,98503.56
2018-04-23T20:30:56.013Z,98502.95
2018-04-23T20:33:23.550Z,98501.23
2018-04-23T20:35:51.060Z,98498.30
2018-04-23T20:38:18.565Z,98502.06
2018-04-23T20:40:46.186Z,98511.92
2018-04-23T20:43:13.697Z,98514.95
2018-04-23T20:45:41.226Z,98521.20
2018-04-23T20:48:08.965Z,98522.48
2018-04-23T20:50:36.482Z,98517.43
2018-04-23T20:53:03.966Z,98525.52
2018-04-23T20:55:31.577Z,98532.20
2018-04-23T20:57:59.290Z,98535.05
2018-04-23T21:00:26.832Z,98540.41
2018-04-23T21:02:54.356Z,98538.96
2018-04-23T21:05:21.874Z,98536.53
2018-04-23T21:07:49.460Z,98540.77
2018-04-23T21:10:17.017Z,98543.15
2018-04-23T21:12:44.619Z,98557.59
2018-04-23T21:15:12.173Z,98558.03
2018-04-23T21:17:39.690Z,98557.34
2018-04-23T21:20:07.196Z,98553.25
2018-04-23T21:22:34.694Z,98558.08
2018-04-23T21:25:02.209Z,98553.39
2018-04-23T21:27:29.741Z,98558.70
2018-04-23T21:29:57.229Z,98555.90
2018-04-23T21:32:24.724Z,98560.61
2018-04-23T21:34:52.206Z,98552.34
2018-04-23T21:37:19.712Z,98557.00
2018-04-23T21:39:47.219Z,98552.45
2018-04-23T21:42:14.804Z,98549.77
2018-04-23T21:44:42.292Z,98552.11
2018-04-23T21:47:09.837Z,98551.32
2018-04-23T21:49:37.320Z,98550.76
2018-04-23T21:52:04.811Z,98548.72
2018-04-23T21:54:32.298Z,98555.77
2018-04-23T21:56:59.869Z,98556.53
2018-04-23T21:59:27.380Z,98559.11
2018-04-23T22:01:54.947Z,98558.61
2018-04-23T22:04:22.538Z,98559.63
2018-04-23T22:06:50.153Z,98561.56
2018-04-23T22:09:18.333Z,98564.80
2018-04-23T22:11:45.886Z,98569.93
2018-04-23T22:14:13.477Z,98570.25
2018-04-23T22:16:41.059Z,98575.53
2018-04-23T22:19:08.610Z,98569.45
2018-04-23T22:21:36.259Z,98578.97
2018-04-23T22:24:03.778Z,98578.32
2018-04-23T22:26:31.433Z,98582.03
2018-04-23T22:28:58.973Z,98577.77
2018-04-23T22:31:26.626Z,98581.78
2018-04-23T22:33:54.182Z,98584.82
2018-04-23T22:36:21.767Z,98578.81
2018-04-23T22:38:49.318Z,98577.19
2018-04-23T22:41:16.852Z,98576.39
2018-04-23T22:43:44.397Z,98573.13
2018-04-23T22:46:12.020Z,98575.89
2018-04-23T22:48:39.568Z,98587.98
2018-04-23T22:51:07.111Z,98582.25
2018-04-23T22:53:34.684Z,98589.41
2018-04-23T22:56:02.248Z,98583.97
2018-04-23T22:58:29.816Z,98581.17
2018-04-23T23:00:57.393Z,98588.25
2018-04-23T23:03:25.025Z,98591.20
2018-04-23T23:05:52.656Z,98598.37
2018-04-23T23:08:20.195Z,98589.89
2018-04-23T23:10:47.793Z,98588.66
2018-04-23T23:13:15.467Z,98586.84
2018-04-23T23:15:43.138Z,98581.04
2018-04-23T23:18:10.688Z,98590.55
2018-04-23T23:20:38.307Z,98588.45
2018-04-23T23:23:05.922Z,98589.77
2018-04-23T23:25:33.496Z,98586.77
2018-04-23T23:28:01.235Z,98589.86
2018-04-23T23:30:28.770Z,98581.16
2018-04-23T23:32:56.331Z,98581.98
2018-04-23T23:35:24.074Z,98580.56
2018-04-23T23:37:51.717Z,98579.03
2018-04-23T23:40:19.284Z,98580.97
2018-04-23T23:42:46.820Z,98581.72
2018-04-23T23:45:14.489Z,98583.98
2018-04-23T23:47:42.130Z,98584.63
2018-04-23T23:50:09.630Z,98582.14
2018-04-23T23:52:37.122Z,98585.73
2018-04-23T23:55:04.614Z,98592.55
2018-04-23T23:57:32.216Z,98586.78
2018-04-23T23:59:59.706Z,98600.58
